createdAt,value
2019-02-24T00:01:40.191Z,11.60
2019-02-24T00:04:11.268Z,13.10
2019-02-24T00:06:42.701Z,14.80
2019-02-24T00:09:15.227Z,13.23
2019-02-24T00:11:46.757Z,15.83
2019-02-24T00:14:18.495Z,16.27
2019-02-24T00:16:50.712Z,15.00
2019-02-24T00:19:21.677Z,15.50
2019-02-24T00:21:52.582Z,13.97
2019-02-24T00:24:24.745Z,14.40
2019-02-24T00:26:55.690Z,11.80
2019-02-24T00:29:26.745Z,11.67
2019-02-24T00:31:57.711Z,12.27
2019-02-24T00:34:28.775Z,13.27
2019-02-24T00:37:00.010Z,14.53
2019-02-24T00:39:32.694Z,12.63
2019-02-24T00:42:04.277Z,13.37
2019-02-24T00:44:35.275Z,14.77
2019-02-24T00:47:06.186Z,13.10
2019-02-24T00:49:37.131Z,12.07
2019-02-24T00:52:08.026Z,13.10
2019-02-24T00:54:39.985Z,12.57
2019-02-24T00:57:11.522Z,13.47
2019-02-24T00:59:42.548Z,12.77
2019-02-24T01:02:13.480Z,14.17
2019-02-24T01:04:44.463Z,12.23
2019-02-24T01:07:15.489Z,13.57
2019-02-24T01:09:46.566Z,14.17
2019-02-24T01:12:17.453Z,13.73
2019-02-24T01:14:48.498Z,12.87
2019-02-24T01:17:19.516Z,11.43
2019-02-24T01:19:50.644Z,13.03
2019-02-24T01:22:21.551Z,12.73
2019-02-24T01:24:52.494Z,14.30
2019-02-24T01:27:23.452Z,12.60
2019-02-24T01:29:54.504Z,12.83
2019-02-24T01:32:25.428Z,15.10
2019-02-24T01:34:56.529Z,14.13
2019-02-24T01:37:27.575Z,13.00
2019-02-24T01:39:58.599Z,12.50
2019-02-24T01:42:30.998Z,14.47
2019-02-24T01:45:02.013Z,12.37
2019-02-24T01:47:33.507Z,13.47
2019-02-24T01:50:04.772Z,12.33
2019-02-24T01:52:35.704Z,13.73
2019-02-24T01:55:06.911Z,11.83
2019-02-24T01:57:37.763Z,13.50
2019-02-24T02:00:09.785Z,13.30
2019-02-24T02:02:41.487Z,11.67
2019-02-24T02:05:12.785Z,13.73
2019-02-24T02:07:43.872Z,11.87
2019-02-24T02:10:14.940Z,13.87
2019-02-24T02:12:45.913Z,12.47
2019-02-24T02:15:17.171Z,13.63
2019-02-24T02:17:49.469Z,14.13
2019-02-24T02:20:22.709Z,12.80
2019-02-24T02:22:53.609Z,12.43
2019-02-24T02:25:24.540Z,12.40
2019-02-24T02:27:55.553Z,11.83
2019-02-24T02:30:26.679Z,13.40
2019-02-24T02:32:57.732Z,12.73
2019-02-24T02:35:28.835Z,16.23
2019-02-24T02:37:59.700Z,13.87
2019-02-24T02:40:30.664Z,13.10
2019-02-24T02:43:01.646Z,14.17
2019-02-24T02:45:32.594Z,15.27
2019-02-24T02:48:03.487Z,12.47
2019-02-24T02:50:34.462Z,14.00
2019-02-24T02:53:05.942Z,13.63
2019-02-24T02:55:37.049Z,12.80
2019-02-24T02:58:08.063Z,10.60
2019-02-24T03:00:42.047Z,14.47
2019-02-24T03:03:13.030Z,14.00
2019-02-24T03:05:55.729Z,13.47
2019-02-24T03:08:46.409Z,13.67
2019-02-24T03:11:17.738Z,13.37
2019-02-24T03:13:49.432Z,12.73
2019-02-24T03:16:24.689Z,14.10
2019-02-24T03:18:55.674Z,13.57
2019-02-24T03:21:26.706Z,14.10
2019-02-24T03:23:57.671Z,11.50
2019-02-24T03:26:29.446Z,10.77
2019-02-24T03:29:04.190Z,11.30
2019-02-24T03:31:32.989Z,12.63
2019-02-24T03:34:05.005Z,11.57
2019-02-24T03:36:36.105Z,13.07
2019-02-24T03:39:07.984Z,12.50
2019-02-24T03:41:39.339Z,14.80
2019-02-24T03:44:10.303Z,13.97
2019-02-24T03:46:41.219Z,14.90
2019-02-24T03:49:12.073Z,13.90
2019-02-24T03:51:43.022Z,11.80
2019-02-24T03:54:13.990Z,13.87
2019-02-24T03:56:45.117Z,12.57
2019-02-24T03:59:16.345Z,12.83
2019-02-24T04:01:47.468Z,13.80
2019-02-24T04:04:18.540Z,10.57
2019-02-24T04:06:49.504Z,13.97
2019-02-24T04:09:20.392Z,12.67
2019-02-24T04:11:51.408Z,14.23
2019-02-24T04:14:22.288Z,10.93
2019-02-24T04:16:53.260Z,10.93
2019-02-24T04:19:25.297Z,10.70
2019-02-24T04:21:56.395Z,13.10
2019-02-24T04:24:27.414Z,15.00
2019-02-24T04:26:58.444Z,14.27
2019-02-24T04:29:29.366Z,12.87
2019-02-24T04:32:00.377Z,11.10
2019-02-24T04:34:31.259Z,10.80
2019-02-24T04:37:02.263Z,12.93
2019-02-24T04:39:33.190Z,11.13
2019-02-24T04:42:04.785Z,11.83
2019-02-24T04:44:36.708Z,12.77
2019-02-24T04:47:07.841Z,12.83
2019-02-24T04:49:40.326Z,11.87
2019-02-24T04:52:11.895Z,11.33
2019-02-24T04:54:42.849Z,10.97
2019-02-24T04:57:13.915Z,11.30
2019-02-24T04:59:44.854Z,11.17
2019-02-24T05:02:15.885Z,11.27
2019-02-24T05:04:46.802Z,14.00
2019-02-24T05:07:18.795Z,15.97
2019-02-24T05:09:49.718Z,12.17
2019-02-24T05:12:20.599Z,11.60
2019-02-24T05:14:51.573Z,10.13
2019-02-24T05:17:22.601Z,13.37
2019-02-24T05:19:53.598Z,10.27
2019-02-24T05:22:24.676Z,11.73
2019-02-24T05:24:55.679Z,10.43
2019-02-24T05:27:26.785Z,11.13
2019-02-24T05:29:57.853Z,12.10
2019-02-24T05:32:29.467Z,9.83
2019-02-24T05:35:00.425Z,10.73
2019-02-24T05:37:31.524Z,10.43
2019-02-24T05:40:02.437Z,13.03
2019-02-24T05:42:34.854Z,12.43
2019-02-24T05:45:06.040Z,14.60
2019-02-24T05:47:37.693Z,12.27
2019-02-24T05:50:08.645Z,11.23
2019-02-24T05:52:40.186Z,12.07
2019-02-24T05:55:11.152Z,10.97
2019-02-24T05:57:42.064Z,14.43
2019-02-24T06:00:13.141Z,12.40
2019-02-24T06:02:44.132Z,13.47
2019-02-24T06:05:15.104Z,13.27
2019-02-24T06:07:46.134Z,13.67
2019-02-24T06:10:17.482Z,13.00
2019-02-24T06:12:48.459Z,13.30
2019-02-24T06:15:19.357Z,13.70
2019-02-24T06:17:50.382Z,13.33
2019-02-24T06:20:21.316Z,12.83
2019-02-24T06:22:52.286Z,15.43
2019-02-24T06:25:23.333Z,12.53
2019-02-24T06:27:55.063Z,15.80
2019-02-24T06:30:27.819Z,17.13
2019-02-24T06:32:59.440Z,12.70
2019-02-24T06:35:31.103Z,13.47
2019-02-24T06:38:02.099Z,13.47
2019-02-24T06:40:33.595Z,15.57
2019-02-24T06:43:04.621Z,15.83
2019-02-24T06:45:35.579Z,12.07
2019-02-24T06:48:06.565Z,12.13
2019-02-24T06:50:58.278Z,12.63
2019-02-24T06:53:29.204Z,13.07
2019-02-24T06:56:00.273Z,18.47
2019-02-24T06:58:32.345Z,12.77
2019-02-24T07:01:03.468Z,13.30
2019-02-24T07:03:35.239Z,59.33
2019-02-24T07:06:06.326Z,15.93
2019-02-24T07:08:38.343Z,24.60
2019-02-24T07:11:09.997Z,17.23
2019-02-24T07:13:40.991Z,17.17
2019-02-24T07:16:12.468Z,19.13
2019-02-24T07:18:43.493Z,17.10
2019-02-24T07:21:14.516Z,20.50
2019-02-24T07:23:46.279Z,18.60
2019-02-24T07:26:17.456Z,24.50
2019-02-24T07:28:50.257Z,17.83
2019-02-24T07:31:21.959Z,17.83
2019-02-24T07:33:52.750Z,17.90
2019-02-24T07:36:24.037Z,17.07
2019-02-24T07:38:55.118Z,17.23
2019-02-24T07:41:26.388Z,14.97
2019-02-24T07:43:57.376Z,12.43
2019-02-24T07:46:28.734Z,18.67
2019-02-24T07:49:00.028Z,16.77
2019-02-24T07:51:31.379Z,22.20
2019-02-24T07:54:02.612Z,23.83
2019-02-24T07:56:33.746Z,16.20
2019-02-24T07:59:05.223Z,18.97
2019-02-24T08:01:36.393Z,15.67
2019-02-24T08:04:07.706Z,18.03
2019-02-24T08:06:40.154Z,22.37
2019-02-24T08:09:11.505Z,30.07
2019-02-24T08:11:42.795Z,28.67
2019-02-24T08:14:14.119Z,25.93
2019-02-24T08:16:45.597Z,27.07
2019-02-24T08:19:16.847Z,72.47
2019-02-24T08:21:47.815Z,67.53
2019-02-24T08:24:18.875Z,112.20
2019-02-24T08:26:50.017Z,40.80
2019-02-24T08:30:15.140Z,47.93
2019-02-24T08:32:46.332Z,48.37
2019-02-24T08:35:17.380Z,39.83
2019-02-24T08:37:48.265Z,52.00
2019-02-24T08:40:21.764Z,46.13
2019-02-24T08:42:53.341Z,60.87
2019-02-24T08:45:24.483Z,28.67
2019-02-24T08:47:56.360Z,30.37
2019-02-24T08:50:27.576Z,32.13
2019-02-24T08:52:58.480Z,22.67
2019-02-24T08:55:29.607Z,18.73
2019-02-24T08:58:00.392Z,19.57
2019-02-24T09:00:31.566Z,19.37
2019-02-24T09:03:03.022Z,21.73
2019-02-24T09:05:34.110Z,23.50
2019-02-24T09:08:05.277Z,19.00
2019-02-24T09:10:36.220Z,18.03
2019-02-24T09:13:07.545Z,20.23
2019-02-24T09:15:38.511Z,17.57
2019-02-24T09:18:09.831Z,16.80
2019-02-24T09:20:40.824Z,17.03
2019-02-24T09:23:15.191Z,15.00
2019-02-24T09:25:46.366Z,15.73
2019-02-24T09:28:17.374Z,15.43
2019-02-24T09:30:48.733Z,16.63
2019-02-24T09:33:21.050Z,30.77
2019-02-24T09:35:52.113Z,26.13
2019-02-24T09:38:23.305Z,21.50
2019-02-24T09:40:54.596Z,23.03
2019-02-24T09:43:25.885Z,19.03
2019-02-24T09:45:57.145Z,18.27
2019-02-24T09:48:28.295Z,21.17
2019-02-24T09:50:59.711Z,19.77
2019-02-24T09:53:30.818Z,18.37
2019-02-24T09:56:02.163Z,17.80
2019-02-24T09:58:33.297Z,14.23
2019-02-24T10:01:10.607Z,17.23
2019-02-24T10:03:37.351Z,17.07
2019-02-24T10:06:09.509Z,16.00
2019-02-24T10:08:40.767Z,20.17
2019-02-24T10:11:13.260Z,16.90
2019-02-24T10:13:45.190Z,16.70
2019-02-24T10:16:16.496Z,14.93
2019-02-24T10:18:47.851Z,18.00
2019-02-24T10:21:19.284Z,13.50
2019-02-24T10:23:52.207Z,13.63
2019-02-24T10:26:23.777Z,12.50
2019-02-24T10:28:55.274Z,13.07
2019-02-24T10:31:26.836Z,13.43
2019-02-24T10:33:58.067Z,14.90
2019-02-24T10:36:29.409Z,13.10
2019-02-24T10:39:00.499Z,13.23
2019-02-24T10:41:33.604Z,12.83
2019-02-24T10:44:05.832Z,12.80
2019-02-24T10:46:37.122Z,14.27
2019-02-24T10:49:08.192Z,12.60
2019-02-24T10:51:39.814Z,11.57
2019-02-24T10:54:12.041Z,11.07
2019-02-24T10:56:44.043Z,12.20
2019-02-24T10:59:16.860Z,14.97
2019-02-24T11:01:47.589Z,14.80
2019-02-24T11:04:19.174Z,10.97
2019-02-24T11:06:53.503Z,11.33
2019-02-24T11:09:24.808Z,11.57
2019-02-24T11:11:56.192Z,11.03
2019-02-24T11:14:27.364Z,10.17
2019-02-24T11:16:58.490Z,9.77
2019-02-24T11:19:30.043Z,12.70
2019-02-24T11:22:01.206Z,12.13
2019-02-24T11:24:32.394Z,11.00
2019-02-24T11:27:04.411Z,12.13
2019-02-24T11:29:36.042Z,12.90
2019-02-24T11:32:07.767Z,13.53
2019-02-24T11:34:39.270Z,11.13
2019-02-24T11:37:10.936Z,9.47
2019-02-24T11:39:42.294Z,19.07
2019-02-24T11:42:13.786Z,9.70
2019-02-24T11:44:44.753Z,9.97
2019-02-24T11:47:16.001Z,10.17
2019-02-24T11:49:47.274Z,11.00
2019-02-24T11:52:18.518Z,10.73
2019-02-24T11:54:49.991Z,10.23
2019-02-24T11:57:21.557Z,13.43
2019-02-24T11:59:52.787Z,11.40
2019-02-24T12:02:24.302Z,10.20
2019-02-24T12:04:55.541Z,11.93
2019-02-24T12:07:26.753Z,9.93
2019-02-24T12:09:58.261Z,9.13
2019-02-24T12:12:29.910Z,10.87
2019-02-24T12:15:01.288Z,10.93
2019-02-24T12:17:32.863Z,10.57
2019-02-24T12:20:04.387Z,11.47
2019-02-24T12:22:35.983Z,10.30
2019-02-24T12:25:08.086Z,14.07
2019-02-24T12:27:39.267Z,11.27
2019-02-24T12:30:11.454Z,13.87
2019-02-24T12:32:42.759Z,10.53
2019-02-24T12:35:14.050Z,9.90
2019-02-24T12:37:45.211Z,10.10
2019-02-24T12:40:16.577Z,9.17
2019-02-24T12:42:47.506Z,10.40
2019-02-24T12:45:18.825Z,9.47
2019-02-24T12:47:52.916Z,10.60
2019-02-24T12:50:24.999Z,8.87
2019-02-24T12:52:56.028Z,8.53
2019-02-24T12:58:13.311Z,6.13
2019-02-24T13:00:44.501Z,7.57
2019-02-24T13:03:23.830Z,7.17
2019-02-24T13:05:49.203Z,7.17
2019-02-24T13:08:20.462Z,7.50
2019-02-24T13:10:51.446Z,6.90
2019-02-24T13:13:23.309Z,6.43
2019-02-24T13:15:54.286Z,5.90
2019-02-24T13:18:25.874Z,6.43
2019-02-24T13:20:57.553Z,6.77
2019-02-24T13:23:29.126Z,6.10
2019-02-24T13:26:00.636Z,6.33
2019-02-24T13:28:34.003Z,8.23
2019-02-24T13:31:06.457Z,6.23
2019-02-24T13:33:37.924Z,8.30
2019-02-24T13:36:09.835Z,7.77
2019-02-24T13:38:42.571Z,8.10
2019-02-24T13:41:14.137Z,8.33
2019-02-24T13:43:46.663Z,8.00
2019-02-24T13:46:17.986Z,8.30
2019-02-24T13:48:49.268Z,9.07
2019-02-24T13:51:20.590Z,8.63
2019-02-24T13:53:52.224Z,8.67
2019-02-24T13:56:23.613Z,10.07
2019-02-24T13:58:55.375Z,9.17
2019-02-24T14:01:27.772Z,9.67
2019-02-24T14:03:59.064Z,12.60
2019-02-24T14:06:30.528Z,9.57
2019-02-24T14:09:03.187Z,6.87
2019-02-24T14:11:35.802Z,6.97
2019-02-24T14:14:06.941Z,8.90
2019-02-24T14:16:40.851Z,8.83
2019-02-24T14:19:12.310Z,8.77
2019-02-24T14:21:44.645Z,8.63
2019-02-24T14:24:15.731Z,9.70
2019-02-24T14:26:48.320Z,9.93
2019-02-24T14:29:20.516Z,8.43
2019-02-24T14:31:51.545Z,10.00
2019-02-24T14:34:22.958Z,7.80
2019-02-24T14:36:54.344Z,8.13
2019-02-24T14:39:25.699Z,8.80
2019-02-24T14:41:57.348Z,8.03
2019-02-24T14:44:28.584Z,8.43
2019-02-24T14:47:00.104Z,7.50
2019-02-24T14:49:34.677Z,6.57
2019-02-24T14:52:06.016Z,6.67
2019-02-24T14:54:37.427Z,7.40
2019-02-24T14:57:08.546Z,7.30
2019-02-24T14:59:39.657Z,8.17
2019-02-24T15:02:10.782Z,9.43
2019-02-24T15:04:42.285Z,8.77
2019-02-24T15:07:13.712Z,10.43
2019-02-24T15:09:45.339Z,11.03
2019-02-24T15:12:17.665Z,10.40
2019-02-24T15:14:49.690Z,8.23
2019-02-24T15:17:20.646Z,7.67
2019-02-24T15:19:53.196Z,9.00
2019-02-24T15:22:25.437Z,10.33
2019-02-24T15:24:56.492Z,9.00
2019-02-24T15:27:27.313Z,9.03
2019-02-24T15:29:58.291Z,6.93
2019-02-24T15:32:29.950Z,9.10
2019-02-24T15:35:01.748Z,8.10
2019-02-24T15:37:34.094Z,8.20
2019-02-24T15:40:06.268Z,10.67
2019-02-24T15:42:37.613Z,9.40
2019-02-24T15:45:08.755Z,11.30
2019-02-24T15:47:40.369Z,11.93
2019-02-24T15:50:12.173Z,12.77
2019-02-24T15:52:43.603Z,14.10
2019-02-24T15:55:15.936Z,12.10
2019-02-24T15:57:47.982Z,17.03
2019-02-24T16:00:20.286Z,16.37
2019-02-24T16:03:00.662Z,12.30
2019-02-24T16:05:25.920Z,14.07
2019-02-24T16:07:57.597Z,10.87
2019-02-24T16:10:29.209Z,11.13
2019-02-24T16:13:00.884Z,11.20
2019-02-24T16:15:32.589Z,12.83
2019-02-24T16:18:04.474Z,14.97
2019-02-24T16:20:36.402Z,17.47
2019-02-24T16:23:08.182Z,23.13
2019-02-24T16:25:39.971Z,23.10
2019-02-24T16:28:11.925Z,16.43
2019-02-24T16:30:44.087Z,18.97
2019-02-24T16:33:16.334Z,14.50
2019-02-24T16:35:48.369Z,14.63
2019-02-24T16:38:20.259Z,15.50
2019-02-24T16:40:51.825Z,12.00
2019-02-24T16:43:24.718Z,11.93
2019-02-24T16:45:56.810Z,12.40
2019-02-24T16:48:28.589Z,15.00
2019-02-24T16:51:00.211Z,13.13
2019-02-24T16:53:39.596Z,12.90
2019-02-24T16:56:15.158Z,15.23
2019-02-24T16:58:49.720Z,14.67
2019-02-24T17:01:23.288Z,15.47
2019-02-24T17:03:57.949Z,15.13
2019-02-24T17:06:29.994Z,12.50
2019-02-24T17:09:03.286Z,14.90
2019-02-24T17:11:42.703Z,16.97
2019-02-24T17:14:15.507Z,14.13
2019-02-24T17:16:47.978Z,16.70
2019-02-24T17:19:19.924Z,13.90
2019-02-24T17:22:14.636Z,15.33
2019-02-24T17:24:48.095Z,18.80
2019-02-24T17:27:20.458Z,16.43
2019-02-24T17:29:52.358Z,16.00
2019-02-24T17:32:25.059Z,14.77
2019-02-24T17:35:02.191Z,15.80
2019-02-24T17:37:34.299Z,15.87
2019-02-24T17:40:06.556Z,15.37
2019-02-24T17:42:38.691Z,16.30
2019-02-24T17:45:12.164Z,13.23
2019-02-24T17:47:43.882Z,48.97
2019-02-24T17:50:15.554Z,15.50
2019-02-24T17:52:48.428Z,18.67
2019-02-24T17:55:20.123Z,12.10
2019-02-24T17:57:51.985Z,16.67
2019-02-24T18:00:32.691Z,14.03
2019-02-24T18:03:04.569Z,15.17
2019-02-24T18:05:36.501Z,15.97
2019-02-24T18:08:08.547Z,15.33
2019-02-24T18:10:40.015Z,12.37
2019-02-24T18:13:12.972Z,16.73
2019-02-24T18:15:44.603Z,14.57
2019-02-24T18:18:16.320Z,16.97
2019-02-24T18:20:47.905Z,20.77
2019-02-24T18:23:21.750Z,18.07
2019-02-24T18:25:54.228Z,17.03
2019-02-24T18:28:26.201Z,17.67
2019-02-24T18:31:00.801Z,16.23
2019-02-24T18:33:32.503Z,15.10
2019-02-24T18:36:04.637Z,14.27
2019-02-24T18:38:36.360Z,32.20
2019-02-24T18:41:07.459Z,14.03
2019-02-24T18:43:38.586Z,14.67
2019-02-24T18:46:10.010Z,19.87
2019-02-24T18:48:41.408Z,23.17
2019-02-24T18:51:12.759Z,18.97
2019-02-24T18:53:44.236Z,19.33
2019-02-24T18:56:15.904Z,19.00
2019-02-24T18:58:48.807Z,19.27
2019-02-24T19:01:20.695Z,23.20
2019-02-24T19:03:57.791Z,20.20
2019-02-24T19:06:25.257Z,20.47
2019-02-24T19:08:56.514Z,21.07
2019-02-24T19:11:27.691Z,19.83
2019-02-24T19:13:59.347Z,20.27
2019-02-24T19:16:30.941Z,19.27
2019-02-24T19:19:04.590Z,22.17
2019-02-24T19:21:35.469Z,22.23
2019-02-24T19:24:06.266Z,22.17
2019-02-24T19:26:37.121Z,22.67
2019-02-24T19:29:07.936Z,26.50
2019-02-24T19:31:40.113Z,23.07
2019-02-24T19:34:12.751Z,20.90
2019-02-24T19:36:44.598Z,29.93
2019-02-24T19:39:17.088Z,21.97
2019-02-24T19:41:48.658Z,22.63
2019-02-24T19:44:20.408Z,25.67
2019-02-24T19:46:52.140Z,23.80
2019-02-24T19:49:23.795Z,29.40
2019-02-24T19:51:57.659Z,27.50
2019-02-24T19:54:28.567Z,25.63
2019-02-24T19:56:59.510Z,26.37
2019-02-24T19:59:30.325Z,26.33
2019-02-24T20:02:01.184Z,28.27
2019-02-24T20:04:32.010Z,32.20
2019-02-24T20:07:02.841Z,27.30
2019-02-24T20:09:34.854Z,27.17
2019-02-24T20:12:06.446Z,32.53
2019-02-24T20:14:37.389Z,29.50
2019-02-24T20:17:08.386Z,29.80
2019-02-24T20:19:39.256Z,34.00
2019-02-24T20:22:10.355Z,30.60
2019-02-24T20:24:41.125Z,32.97
2019-02-24T20:27:12.137Z,38.57
2019-02-24T20:29:42.929Z,40.80
2019-02-24T20:32:13.796Z,36.43
2019-02-24T20:34:44.575Z,36.40
2019-02-24T20:37:15.449Z,40.87
2019-02-24T20:39:46.318Z,51.23
2019-02-24T20:42:17.217Z,47.53
2019-02-24T20:44:48.164Z,53.97
2019-02-24T20:47:20.119Z,42.80
2019-02-24T20:49:51.117Z,49.50
2019-02-24T20:52:22.016Z,41.37
2019-02-24T20:54:52.875Z,47.20
2019-02-24T20:57:23.750Z,47.30
2019-02-24T20:59:54.509Z,54.00
2019-02-24T21:02:25.563Z,45.30
2019-02-24T21:04:56.408Z,43.60
2019-02-24T21:07:27.310Z,101.10
2019-02-24T21:09:58.086Z,48.03
2019-02-24T21:12:28.927Z,39.33
2019-02-24T21:14:59.723Z,44.10
2019-02-24T21:17:30.537Z,35.50
2019-02-24T21:20:01.365Z,34.80
2019-02-24T21:22:32.224Z,34.53
2019-02-24T21:25:02.990Z,37.93
2019-02-24T21:27:33.817Z,34.40
2019-02-24T21:30:05.564Z,40.60
2019-02-24T21:32:36.458Z,34.60
2019-02-24T21:35:08.153Z,37.30
2019-02-24T21:37:39.179Z,39.37
2019-02-24T21:40:11.170Z,40.40
2019-02-24T21:42:42.387Z,35.03
2019-02-24T21:45:16.934Z,39.67
2019-02-24T21:47:48.313Z,40.20
2019-02-24T21:50:19.546Z,37.50
2019-02-24T21:52:50.911Z,40.93
2019-02-24T21:55:22.378Z,42.67
2019-02-24T21:57:53.941Z,40.67
2019-02-24T22:00:25.078Z,44.83
2019-02-24T22:02:56.625Z,41.87
2019-02-24T22:05:27.907Z,35.80
2019-02-24T22:07:59.149Z,41.77
2019-02-24T22:10:30.664Z,44.10
2019-02-24T22:13:01.693Z,44.03
2019-02-24T22:15:33.244Z,43.53
2019-02-24T22:18:05.070Z,45.80
2019-02-24T22:20:36.473Z,45.73
2019-02-24T22:23:07.979Z,44.23
2019-02-24T22:25:39.322Z,43.97
2019-02-24T22:28:10.924Z,42.67
2019-02-24T22:30:42.456Z,46.77
2019-02-24T22:33:14.444Z,45.27
2019-02-24T22:35:46.901Z,45.00
2019-02-24T22:38:18.316Z,48.43
2019-02-24T22:40:54.435Z,48.50
2019-02-24T22:43:22.653Z,51.23
2019-02-24T22:45:53.822Z,51.40
2019-02-24T22:48:25.754Z,51.10
2019-02-24T22:50:57.726Z,48.27
2019-02-24T22:53:29.284Z,55.57
2019-02-24T22:56:00.980Z,52.23
2019-02-24T22:58:32.497Z,53.97
2019-02-24T23:01:16.270Z,55.53
2019-02-24T23:03:49.168Z,54.80
2019-02-24T23:06:20.737Z,54.80
2019-02-24T23:08:52.275Z,52.80
2019-02-24T23:11:23.177Z,56.30
2019-02-24T23:13:54.378Z,54.20
2019-02-24T23:16:25.545Z,60.23
2019-02-24T23:18:56.635Z,58.60
2019-02-24T23:21:27.485Z,62.23
2019-02-24T23:23:58.893Z,60.17
2019-02-24T23:26:29.716Z,62.00
2019-02-24T23:29:00.740Z,62.53
2019-02-24T23:31:32.107Z,71.27
2019-02-24T23:34:03.162Z,68.90
2019-02-24T23:36:34.446Z,69.67
2019-02-24T23:39:09.800Z,71.93
2019-02-24T23:41:41.172Z,76.20
2019-02-24T23:44:12.247Z,79.20
2019-02-24T23:46:43.332Z,75.70
2019-02-24T23:49:14.721Z,83.97
2019-02-24T23:51:45.805Z,80.00
2019-02-24T23:54:17.194Z,74.77
2019-02-24T23:56:48.412Z,91.37
2019-02-24T23:59:19.596Z,92.97
